Time;durP1;ratioP1;P1;durP2;ratioP2;P2;SDS_P1;SDS_P2;PMS_P1;PMS_P2;Temp;Humidity;BMP_temperature;BMP_pressure;BME280_temperature;BME280_humidity;BME280_pressure;Samples;Min_cycle;Max_cycle;Signal;HPM_P1;HPM_P2
2022/03/17 00:00:19;;;;;;;2.13;1.93;;;3.40;99.90;;;;;;5065265;28;20460;-88
2022/03/17 00:02:46;;;;;;;0.30;0.10;;;3.40;99.90;;;;;;5067202;28;20460;-90
2022/03/17 00:05:14;;;;;;;0.40;0.30;;;3.30;99.90;;;;;;5065172;28;20521;-88
2022/03/17 00:07:43;;;;;;;0.30;0.10;;;3.40;99.90;;;;;;5066778;28;20459;-88
2022/03/17 00:10:15;;;;;;;0.30;0.20;;;3.40;99.90;;;;;;5066262;28;20490;-88
2022/03/17 00:12:42;;;;;;;0.30;0.20;;;3.50;99.90;;;;;;5066384;28;20462;-86
2022/03/17 00:15:10;;;;;;;0.40;0.30;;;3.60;99.90;;;;;;5065289;28;20561;-88
2022/03/17 00:17:37;;;;;;;0.73;0.73;;;3.50;99.90;;;;;;5062858;28;20503;-88
2022/03/17 00:20:10;;;;;;;2.93;1.60;;;3.50;99.90;;;;;;5067016;28;20448;-88
2022/03/17 00:22:37;;;;;;;0.30;0.17;;;3.50;99.90;;;;;;5061287;28;20463;-88
2022/03/17 00:25:06;;;;;;;0.40;0.30;;;3.40;99.90;;;;;;5066055;28;20487;-88
2022/03/17 00:27:34;;;;;;;0.77;0.77;;;3.40;99.90;;;;;;5064087;28;20455;-91
2022/03/17 00:30:02;;;;;;;0.40;0.40;;;3.40;99.90;;;;;;5065630;28;20525;-89
2022/03/17 00:32:29;;;;;;;1.00;1.00;;;3.40;99.90;;;;;;5060890;28;20863;-88
2022/03/17 00:37:40;;;;;;;0.40;0.30;;;3.40;99.90;;;;;;5062139;28;20566;-88
2022/03/17 00:40:08;;;;;;;0.63;0.63;;;3.40;99.90;;;;;;5061764;28;20539;-88
2022/03/17 00:42:37;;;;;;;0.73;0.73;;;3.30;99.90;;;;;;5066164;28;20463;-88
2022/03/17 00:45:04;;;;;;;1.70;1.43;;;3.30;99.90;;;;;;5068016;28;20448;-90
2022/03/17 00:47:31;;;;;;;0.30;0.20;;;3.20;99.90;;;;;;5067424;28;20875;-88
2022/03/17 00:49:58;;;;;;;0.57;0.57;;;3.20;99.90;;;;;;5078656;28;20490;-89
2022/03/17 00:52:25;;;;;;;0.40;0.40;;;3.20;99.90;;;;;;5090593;28;20488;-88
2022/03/17 00:54:52;;;;;;;0.30;0.10;;;3.20;99.90;;;;;;5068375;28;20456;-88
2022/03/17 00:57:19;;;;;;;3.80;1.23;;;3.20;99.90;;;;;;5065383;28;20523;-90
2022/03/17 00:59:48;;;;;;;0.30;0.10;;;3.20;99.90;;;;;;5069353;28;20517;-88
2022/03/17 01:02:16;;;;;;;0.30;0.23;;;3.10;99.90;;;;;;5064437;28;21114;-88
2022/03/17 01:04:43;;;;;;;0.37;0.30;;;3.20;99.90;;;;;;5064199;28;20460;-88
2022/03/17 01:07:10;;;;;;;0.30;0.10;;;3.10;99.90;;;;;;5063692;28;21007;-87
2022/03/17 01:09:38;;;;;;;0.60;0.60;;;3.10;99.90;;;;;;5066313;28;20457;-87
2022/03/17 01:12:05;;;;;;;0.87;0.87;;;3.10;99.90;;;;;;5065966;28;20521;-89
2022/03/17 01:14:32;;;;;;;2.03;1.97;;;3.10;99.90;;;;;;5065504;28;20512;-89
2022/03/17 01:17:01;;;;;;;0.30;0.10;;;3.10;99.90;;;;;;5070241;28;20465;-88
2022/03/17 01:19:28;;;;;;;0.30;0.20;;;3.20;99.90;;;;;;5069685;28;20486;-89
2022/03/17 01:21:55;;;;;;;0.30;0.20;;;3.20;99.90;;;;;;5070948;28;21239;-87
2022/03/17 01:24:22;;;;;;;0.40;0.30;;;3.20;99.90;;;;;;5065995;28;20895;-90
2022/03/17 01:26:49;;;;;;;0.93;0.93;;;3.30;99.90;;;;;;5069636;28;20447;-89
2022/03/17 01:29:16;;;;;;;0.40;0.30;;;3.20;99.90;;;;;;5067701;28;21015;-88
2022/03/17 01:31:43;;;;;;;0.30;0.20;;;3.20;99.90;;;;;;5071209;28;20452;-90
2022/03/17 01:34:11;;;;;;;0.30;0.13;;;3.20;99.90;;;;;;5067438;28;20589;-88
2022/03/17 01:36:38;;;;;;;0.37;0.30;;;3.20;99.90;;;;;;5069438;28;20468;-89
2022/03/17 01:39:06;;;;;;;0.80;0.77;;;3.20;99.90;;;;;;5067641;28;20492;-88
2022/03/17 01:41:34;;;;;;;0.57;0.53;;;3.20;99.90;;;;;;5069744;28;20934;-88
2022/03/17 01:44:01;;;;;;;0.53;0.47;;;3.20;99.90;;;;;;5065159;28;20498;-88
2022/03/17 01:46:28;;;;;;;1.53;1.47;;;3.20;99.90;;;;;;5070758;28;20551;-89
2022/03/17 01:48:57;;;;;;;0.30;0.20;;;3.20;99.90;;;;;;5064107;28;20496;-89
2022/03/17 01:51:26;;;;;;;4.00;1.93;;;3.10;99.90;;;;;;5069499;28;20973;-88
2022/03/17 01:53:53;;;;;;;1.13;1.13;;;3.10;99.90;;;;;;5067777;28;20495;-88
2022/03/17 01:56:20;;;;;;;0.70;0.70;;;3.10;99.90;;;;;;5070209;28;20952;-87
2022/03/17 01:58:47;;;;;;;0.40;0.33;;;3.00;99.90;;;;;;5063513;28;20575;-90
2022/03/17 02:01:14;;;;;;;0.40;0.30;;;3.00;99.90;;;;;;5070346;28;20460;-88
2022/03/17 02:03:43;;;;;;;3.50;2.10;;;2.90;99.90;;;;;;5067101;28;20463;-91
2022/03/17 02:06:10;;;;;;;0.30;0.10;;;3.00;99.90;;;;;;5067982;28;20841;-88
2022/03/17 02:08:39;;;;;;;0.87;0.87;;;3.00;99.90;;;;;;5063872;28;20209;-90
2022/03/17 02:13:51;;;;;;;0.43;0.40;;;3.10;99.90;;;;;;5070240;28;20580;-87
2022/03/17 02:16:18;;;;;;;0.60;0.60;;;3.20;99.90;;;;;;5069261;28;20815;-88
2022/03/17 02:18:46;;;;;;;0.50;0.40;;;3.30;99.90;;;;;;5066606;28;20535;-89
2022/03/17 02:21:13;;;;;;;1.53;1.43;;;3.30;99.90;;;;;;5068491;28;20547;-88
2022/03/17 02:26:27;;;;;;;0.30;0.20;;;3.30;99.90;;;;;;5069221;28;20505;-88
2022/03/17 02:28:54;;;;;;;0.93;0.93;;;3.30;99.90;;;;;;5067927;28;20467;-88
2022/03/17 02:31:21;;;;;;;0.30;0.20;;;3.30;99.90;;;;;;5070160;28;20451;-87
2022/03/17 02:33:48;;;;;;;2.00;2.00;;;3.30;99.90;;;;;;5068063;28;20470;-88
2022/03/17 02:36:15;;;;;;;0.53;0.53;;;3.30;99.90;;;;;;5070840;28;20516;-88
2022/03/17 02:38:44;;;;;;;0.30;0.30;;;3.20;99.90;;;;;;5070168;28;21056;-87
2022/03/17 02:41:21;;;;;;;1.63;0.50;;;3.30;99.90;;;;;;5069624;28;20478;-87
2022/03/17 02:43:50;;;;;;;1.13;1.13;;;3.30;99.90;;;;;;5066621;28;20458;-88
2022/03/17 02:46:17;;;;;;;0.30;0.20;;;3.30;99.90;;;;;;5065008;28;20472;-87
2022/03/17 02:48:44;;;;;;;1.13;1.13;;;3.30;99.90;;;;;;5067697;28;20826;-87
2022/03/17 02:51:11;;;;;;;0.30;0.10;;;3.30;99.90;;;;;;5069998;28;20633;-89
2022/03/17 02:53:38;;;;;;;2.20;2.10;;;3.40;99.90;;;;;;5073187;28;20859;-87
2022/03/17 02:56:07;;;;;;;0.50;0.50;;;3.30;99.90;;;;;;5086243;28;20529;-87
2022/03/17 02:58:34;;;;;;;2.93;0.60;;;3.30;99.90;;;;;;5069374;28;20482;-88
2022/03/17 03:01:01;;;;;;;0.30;0.20;;;3.30;99.90;;;;;;5067026;28;20493;-89
2022/03/17 03:03:28;;;;;;;1.70;0.70;;;3.30;99.90;;;;;;5064692;28;20503;-89
2022/03/17 03:05:55;;;;;;;0.53;0.53;;;3.30;99.90;;;;;;5065889;28;20451;-89
2022/03/17 03:08:22;;;;;;;0.40;0.30;;;3.20;99.90;;;;;;5066433;28;20494;-89
2022/03/17 03:10:49;;;;;;;0.40;0.40;;;3.20;99.90;;;;;;5068571;28;20448;-88
2022/03/17 03:13:17;;;;;;;0.30;0.20;;;3.20;99.90;;;;;;5064351;28;20521;-88
2022/03/17 03:15:44;;;;;;;0.30;0.20;;;3.20;99.90;;;;;;5065368;28;20467;-89
2022/03/17 03:18:11;;;;;;;1.07;1.07;;;3.20;99.90;;;;;;5067269;28;20492;-88
2022/03/17 03:20:38;;;;;;;0.30;0.30;;;3.20;99.90;;;;;;5070256;28;20816;-88
2022/03/17 03:23:05;;;;;;;2.20;1.90;;;3.10;99.90;;;;;;5069944;28;20542;-88
2022/03/17 03:25:32;;;;;;;3.00;2.80;;;3.10;99.90;;;;;;5067962;28;20962;-87
2022/03/17 03:28:05;;;;;;;0.40;0.37;;;3.00;99.90;;;;;;5066701;28;20455;-87
2022/03/17 03:30:34;;;;;;;0.45;0.45;;;3.10;99.90;;;;;;5062076;28;20472;-89
2022/03/17 03:33:02;;;;;;;0.30;0.10;;;3.10;99.90;;;;;;5062123;28;20212;-87
2022/03/17 03:38:13;;;;;;;1.95;0.57;;;2.90;99.90;;;;;;5061131;28;20530;-88
2022/03/17 03:40:40;;;;;;;0.80;0.65;;;3.00;99.90;;;;;;5062302;28;20258;-87
2022/03/17 03:43:07;;;;;;;0.30;0.20;;;2.90;99.90;;;;;;5065506;28;20205;-87
2022/03/17 03:45:36;;;;;;;0.70;0.70;;;2.90;99.90;;;;;;5066848;28;20212;-87
2022/03/17 03:48:03;;;;;;;1.58;1.48;;;2.90;99.90;;;;;;5068211;28;20459;-88
2022/03/17 03:50:30;;;;;;;2.15;1.25;;;3.00;99.90;;;;;;5070658;28;20228;-89
2022/03/17 03:52:58;;;;;;;1.30;1.20;;;2.90;99.90;;;;;;5062372;28;20204;-88
2022/03/17 03:55:25;;;;;;;1.37;1.27;;;3.00;99.90;;;;;;5066548;28;20268;-88
2022/03/17 03:57:52;;;;;;;4.00;2.50;;;2.90;99.90;;;;;;5068467;28;20474;-87
2022/03/17 04:00:26;;;;;;;0.30;0.20;;;2.90;99.90;;;;;;5068223;28;20225;-86
2022/03/17 04:02:55;;;;;;;0.90;0.90;;;2.90;99.90;;;;;;5075395;28;20203;-87
2022/03/17 04:05:24;;;;;;;0.30;0.20;;;3.00;99.90;;;;;;5078127;28;20268;-86
2022/03/17 04:07:51;;;;;;;3.77;2.20;;;3.00;99.90;;;;;;5064844;28;20219;-86
2022/03/17 04:10:18;;;;;;;1.35;0.85;;;3.00;99.90;;;;;;5066151;28;20466;-87
2022/03/17 04:12:45;;;;;;;0.60;0.30;;;3.00;99.90;;;;;;5068841;28;20262;-88
2022/03/17 04:15:12;;;;;;;0.65;0.63;;;3.00;99.90;;;;;;5066814;28;20276;-87
2022/03/17 04:17:40;;;;;;;1.70;1.03;;;2.90;99.90;;;;;;5068137;28;20236;-88
2022/03/17 04:20:09;;;;;;;0.60;0.60;;;3.00;99.90;;;;;;5066667;28;20911;-88
2022/03/17 04:22:37;;;;;;;0.30;0.10;;;3.00;99.90;;;;;;5069506;28;20545;-87
2022/03/17 04:25:05;;;;;;;0.60;0.60;;;2.90;99.90;;;;;;5065012;28;20938;-89
2022/03/17 04:27:31;;;;;;;0.82;0.43;;;3.00;99.90;;;;;;5066478;28;20208;-88
2022/03/17 04:29:58;;;;;;;2.73;1.43;;;3.00;99.90;;;;;;5062333;28;20861;-87
2022/03/17 04:32:25;;;;;;;0.30;0.20;;;2.90;99.90;;;;;;5061696;28;21231;-87
2022/03/17 04:34:52;;;;;;;0.40;0.35;;;3.00;99.90;;;;;;5065889;28;20726;-87
2022/03/17 04:37:21;;;;;;;0.40;0.30;;;3.00;99.90;;;;;;5070228;28;20201;-87
2022/03/17 04:39:48;;;;;;;0.60;0.60;;;3.00;99.90;;;;;;5065867;28;20547;-88
2022/03/17 04:42:15;;;;;;;0.40;0.37;;;3.10;99.90;;;;;;5065594;28;20467;-88
2022/03/17 04:44:42;;;;;;;0.57;0.57;;;3.10;99.90;;;;;;5065255;28;20449;-88
2022/03/17 04:47:09;;;;;;;0.60;0.50;;;3.10;99.90;;;;;;5067850;28;21025;-88
2022/03/17 04:49:36;;;;;;;0.40;0.30;;;3.10;99.90;;;;;;5067711;28;20524;-87
2022/03/17 04:53:26;;;;;;;0.40;0.30;;;3.10;99.90;;;;;;5069234;28;20459;-87
2022/03/17 04:54:51;;;;;;;0.60;0.40;;;3.10;99.90;;;;;;5070926;28;21278;-89
2022/03/17 04:57:18;;;;;;;0.30;0.10;;;3.20;99.90;;;;;;5079746;28;20455;-88
2022/03/17 04:59:45;;;;;;;0.60;0.60;;;3.20;99.90;;;;;;5084755;28;20509;-87
2022/03/17 05:02:13;;;;;;;0.30;0.20;;;3.20;99.90;;;;;;5067689;28;20977;-88
2022/03/17 05:04:40;;;;;;;0.77;0.77;;;3.20;99.90;;;;;;5067304;28;20456;-87
2022/03/17 05:07:07;;;;;;;0.30;0.20;;;3.20;99.90;;;;;;5070142;28;20456;-87
2022/03/17 05:09:34;;;;;;;0.50;0.30;;;3.20;99.90;;;;;;5067024;28;20945;-87
2022/03/17 05:12:03;;;;;;;1.57;1.43;;;3.20;99.90;;;;;;5072051;28;20897;-88
2022/03/17 05:14:30;;;;;;;0.50;0.50;;;3.20;99.90;;;;;;5072443;28;20439;-88
2022/03/17 05:16:57;;;;;;;0.90;0.90;;;3.20;99.90;;;;;;5068725;28;20508;-87
2022/03/17 05:19:24;;;;;;;0.30;0.17;;;3.30;99.90;;;;;;5067462;28;20540;-88
2022/03/17 05:21:53;;;;;;;0.93;0.93;;;3.30;99.90;;;;;;5069968;28;20471;-87
2022/03/17 05:24:20;;;;;;;1.63;1.63;;;3.30;99.90;;;;;;5067681;28;20455;-87
2022/03/17 05:26:48;;;;;;;0.40;0.23;;;3.30;99.90;;;;;;5070883;28;20474;-87
2022/03/17 05:29:16;;;;;;;4.97;4.60;;;3.30;99.90;;;;;;5070713;28;20488;-88
2022/03/17 05:31:43;;;;;;;0.30;0.20;;;3.30;99.90;;;;;;5076369;28;20471;-87
2022/03/17 05:34:10;;;;;;;0.50;0.50;;;3.40;99.90;;;;;;5080429;28;20999;-87
2022/03/17 05:36:37;;;;;;;1.33;0.40;;;3.40;99.90;;;;;;5078252;28;20937;-91
2022/03/17 05:39:05;;;;;;;0.77;0.77;;;3.40;99.90;;;;;;5069376;28;20479;-89
2022/03/17 05:41:31;;;;;;;0.77;0.77;;;3.40;99.90;;;;;;5071031;28;20947;-86
2022/03/17 05:43:58;;;;;;;0.63;0.63;;;3.50;99.90;;;;;;5079891;28;20942;-87
2022/03/17 05:46:27;;;;;;;1.13;1.13;;;3.50;99.90;;;;;;5062719;28;20967;-89
2022/03/17 05:48:55;;;;;;;0.40;0.40;;;3.50;99.90;;;;;;5064619;28;20447;-89
2022/03/17 05:51:23;;;;;;;0.30;0.10;;;3.50;99.90;;;;;;5062889;28;21402;-88
2022/03/17 05:53:50;;;;;;;0.60;0.37;;;3.60;99.90;;;;;;5071390;28;20456;-89
2022/03/17 05:56:17;;;;;;;0.30;0.20;;;3.60;99.90;;;;;;5072300;28;20450;-89
2022/03/17 05:58:44;;;;;;;2.57;2.47;;;3.70;99.90;;;;;;5068214;28;20958;-88
2022/03/17 06:01:11;;;;;;;0.50;0.50;;;3.70;99.90;;;;;;5056086;28;20465;-88
2022/03/17 06:03:39;;;;;;;0.30;0.20;;;3.70;99.90;;;;;;5069175;28;20795;-88
2022/03/17 06:06:06;;;;;;;0.53;0.53;;;3.70;99.90;;;;;;5072511;28;20480;-89
2022/03/17 06:08:33;;;;;;;0.50;0.50;;;3.70;99.90;;;;;;5066708;28;20452;-88
2022/03/17 06:11:00;;;;;;;0.40;0.40;;;3.80;99.90;;;;;;5071635;28;20467;-89
2022/03/17 06:13:29;;;;;;;0.87;0.87;;;3.80;99.90;;;;;;5077315;28;20930;-89
2022/03/17 06:15:56;;;;;;;1.40;1.30;;;3.80;99.90;;;;;;5072487;28;20463;-88
2022/03/17 06:18:23;;;;;;;4.83;2.43;;;3.90;99.90;;;;;;5071365;28;21033;-88
2022/03/17 06:20:52;;;;;;;2.87;2.77;;;3.90;99.90;;;;;;5065533;28;20484;-88
2022/03/17 06:23:18;;;;;;;0.50;0.37;;;3.90;99.90;;;;;;5071975;28;20635;-88
2022/03/17 06:25:46;;;;;;;0.40;0.20;;;3.90;99.90;;;;;;5074648;28;20458;-88
2022/03/17 06:28:14;;;;;;;2.23;2.13;;;3.90;99.90;;;;;;5085931;28;20460;-88
2022/03/17 06:30:41;;;;;;;0.30;0.17;;;3.90;99.90;;;;;;5057096;28;20494;-88
2022/03/17 06:33:08;;;;;;;0.60;0.53;;;4.00;99.90;;;;;;5073307;28;20456;-89
2022/03/17 06:35:36;;;;;;;0.30;0.20;;;4.00;99.90;;;;;;5071649;28;20934;-88
2022/03/17 06:38:06;;;;;;;1.63;1.53;;;4.10;99.90;;;;;;5072352;28;20527;-87
2022/03/17 06:40:35;;;;;;;1.00;0.87;;;4.10;99.90;;;;;;5075773;28;20481;-88
2022/03/17 06:43:02;;;;;;;0.70;0.70;;;4.10;99.90;;;;;;5073895;28;20596;-88
2022/03/17 06:45:29;;;;;;;0.83;0.83;;;4.20;99.90;;;;;;5053199;28;20478;-88
2022/03/17 06:47:57;;;;;;;0.50;0.50;;;4.20;99.90;;;;;;5069046;28;20475;-89
2022/03/17 06:50:30;;;;;;;0.30;0.30;;;4.20;99.90;;;;;;5071178;28;21156;-96
2022/03/17 06:52:57;;;;;;;0.70;0.53;;;4.30;99.90;;;;;;5081116;28;20464;-88
2022/03/17 06:55:26;;;;;;;0.30;0.20;;;4.20;99.90;;;;;;5059071;28;20460;-86
2022/03/17 06:57:53;;;;;;;1.33;0.57;;;4.30;99.90;;;;;;5066281;28;20971;-89
2022/03/17 07:00:21;;;;;;;3.50;3.30;;;4.30;99.90;;;;;;5086695;28;20486;-88
2022/03/17 07:02:48;;;;;;;0.30;0.20;;;4.40;99.90;;;;;;5079648;28;20461;-89
2022/03/17 07:05:16;;;;;;;2.40;0.90;;;4.50;99.90;;;;;;5069171;28;20449;-88
2022/03/17 07:07:44;;;;;;;0.53;0.30;;;4.60;99.90;;;;;;5065589;28;20504;-89
2022/03/17 07:10:12;;;;;;;1.23;1.13;;;4.60;99.90;;;;;;5072570;28;20954;-88
2022/03/17 07:12:41;;;;;;;0.40;0.37;;;4.70;99.90;;;;;;5072588;28;20448;-89
2022/03/17 07:15:09;;;;;;;3.80;1.83;;;4.70;99.90;;;;;;5067477;28;20468;-90
2022/03/17 07:17:39;;;;;;;1.80;1.50;;;4.70;99.90;;;;;;5067349;28;20620;-88
2022/03/17 07:20:08;;;;;;;1.10;1.00;;;4.80;99.90;;;;;;5067494;28;20488;-90
2022/03/17 07:22:35;;;;;;;0.30;0.20;;;4.90;99.90;;;;;;5069954;28;20479;-89
2022/03/17 07:25:03;;;;;;;0.97;0.93;;;4.90;99.90;;;;;;5067572;28;20456;-88
2022/03/17 07:27:32;;;;;;;5.13;3.47;;;4.90;99.90;;;;;;5080047;28;20526;-89
2022/03/17 07:30:02;;;;;;;0.40;0.30;;;5.00;99.90;;;;;;5050335;28;20922;-89
2022/03/17 07:32:29;;;;;;;0.30;0.10;;;5.00;99.90;;;;;;5070507;28;20522;-89
2022/03/17 07:34:56;;;;;;;0.30;0.20;;;5.00;99.90;;;;;;5065615;28;20469;-89
2022/03/17 07:37:23;;;;;;;0.63;0.63;;;5.10;99.90;;;;;;5076950;28;20452;-91
2022/03/17 07:39:50;;;;;;;1.33;0.83;;;5.20;99.90;;;;;;5063799;28;20612;-87
2022/03/17 07:42:17;;;;;;;1.90;0.70;;;5.30;99.90;;;;;;5071106;28;20471;-85
2022/03/17 07:44:44;;;;;;;6.70;2.07;;;5.30;99.90;;;;;;5062125;28;20465;-88
2022/03/17 07:47:12;;;;;;;0.30;0.20;;;5.40;99.90;;;;;;5060559;28;20452;-88
2022/03/17 07:49:40;;;;;;;0.60;0.57;;;5.40;99.90;;;;;;5070371;28;20444;-87
2022/03/17 07:52:07;;;;;;;0.87;0.87;;;5.50;99.90;;;;;;5069113;28;20529;-88
2022/03/17 07:54:35;;;;;;;0.30;0.20;;;5.60;99.90;;;;;;5069086;28;20501;-89
2022/03/17 07:57:03;;;;;;;1.23;0.90;;;5.70;99.90;;;;;;5069131;28;20545;-88
2022/03/17 07:59:30;;;;;;;0.70;0.70;;;5.70;99.90;;;;;;5057619;28;20460;-87
2022/03/17 08:01:57;;;;;;;3.23;2.50;;;5.80;99.90;;;;;;5070497;28;20452;-88
2022/03/17 08:04:26;;;;;;;0.30;0.20;;;5.80;99.90;;;;;;5059485;28;20468;-88
2022/03/17 08:06:53;;;;;;;0.60;0.47;;;5.90;99.90;;;;;;5064047;28;20493;-87
2022/03/17 08:09:21;;;;;;;1.20;1.03;;;6.00;99.90;;;;;;5070484;28;20448;-87
2022/03/17 08:11:48;;;;;;;0.47;0.47;;;6.10;99.90;;;;;;5089894;28;20504;-90
2022/03/17 08:14:16;;;;;;;2.63;2.53;;;6.10;99.90;;;;;;5063974;28;21308;-87
2022/03/17 08:16:43;;;;;;;1.37;0.33;;;6.10;99.90;;;;;;5076984;28;20507;-87
2022/03/17 08:19:10;;;;;;;0.33;0.30;;;6.10;99.90;;;;;;5049366;28;20817;-86
2022/03/17 08:21:39;;;;;;;0.77;0.77;;;6.20;99.90;;;;;;5074745;28;20506;-88
2022/03/17 08:24:07;;;;;;;0.40;0.37;;;6.20;99.90;;;;;;5070208;28;20469;-87
2022/03/17 08:26:34;;;;;;;1.13;1.03;;;6.30;99.90;;;;;;5071197;28;20443;-87
2022/03/17 08:29:01;;;;;;;0.30;0.20;;;6.30;99.90;;;;;;5078732;28;20455;-88
2022/03/17 08:31:28;;;;;;;0.97;0.97;;;6.60;99.90;;;;;;5093853;28;20455;-88
2022/03/17 08:33:56;;;;;;;0.60;0.60;;;6.80;99.90;;;;;;5091270;28;20524;-89
2022/03/17 08:36:23;;;;;;;0.33;0.23;;;6.70;99.90;;;;;;5080345;28;20965;-87
2022/03/17 08:38:52;;;;;;;1.93;1.83;;;6.80;99.90;;;;;;5074059;28;20537;-89
2022/03/17 08:41:19;;;;;;;1.30;1.27;;;6.80;99.90;;;;;;5061396;28;20503;-88
2022/03/17 08:43:46;;;;;;;3.93;0.57;;;6.90;99.90;;;;;;5070639;28;20833;-88
2022/03/17 08:51:42;;;;;;;0.47;0.43;;;6.80;99.90;;;;;;5072271;28;20440;-88
2022/03/17 08:54:10;;;;;;;0.40;0.30;;;7.30;99.90;;;;;;5078127;28;20533;-88
2022/03/17 08:56:38;;;;;;;2.23;2.13;;;7.40;99.90;;;;;;5072612;28;20460;-90
2022/03/17 08:59:06;;;;;;;1.13;1.00;;;7.40;99.90;;;;;;5093404;28;20441;-89
2022/03/17 09:01:33;;;;;;;1.40;1.40;;;7.40;99.90;;;;;;5080682;28;20497;-87
2022/03/17 09:04:00;;;;;;;0.30;0.20;;;7.40;99.90;;;;;;5082309;28;20451;-89
2022/03/17 09:06:28;;;;;;;0.30;0.20;;;7.50;99.90;;;;;;5075407;28;20474;-88
2022/03/17 09:08:55;;;;;;;1.03;0.60;;;7.70;99.90;;;;;;5069330;28;20468;-90
2022/03/17 09:11:24;;;;;;;1.70;1.60;;;7.90;99.90;;;;;;5091670;28;20451;-90
2022/03/17 09:13:51;;;;;;;1.23;1.13;;;7.80;99.90;;;;;;5079860;28;20809;-91
2022/03/17 09:16:18;;;;;;;1.20;1.20;;;7.90;99.90;;;;;;5073102;28;20465;-90
2022/03/17 09:18:45;;;;;;;0.40;0.30;;;7.90;99.90;;;;;;5073499;28;20484;-90
2022/03/17 09:21:12;;;;;;;4.00;3.80;;;8.00;99.90;;;;;;5076583;28;20492;-90
2022/03/17 09:23:39;;;;;;;0.57;0.57;;;8.30;99.90;;;;;;5081251;28;20459;-89
2022/03/17 09:26:06;;;;;;;0.50;0.50;;;8.60;99.90;;;;;;5053681;28;20447;-88
2022/03/17 09:28:35;;;;;;;0.30;0.20;;;8.50;99.90;;;;;;5085509;28;20522;-91
2022/03/17 09:31:02;;;;;;;0.53;0.53;;;8.20;99.90;;;;;;5073482;28;20443;-91
2022/03/17 09:33:29;;;;;;;3.17;1.60;;;8.10;99.90;;;;;;5070493;28;20529;-90
2022/03/17 09:35:57;;;;;;;0.73;0.40;;;8.10;99.90;;;;;;5094557;28;20925;-90
2022/03/17 09:38:25;;;;;;;0.60;0.60;;;8.40;99.90;;;;;;5093080;28;20462;-91
2022/03/17 09:40:52;;;;;;;2.00;1.33;;;8.70;99.90;;;;;;5060711;28;20858;-90
2022/03/17 09:43:21;;;;;;;3.03;1.53;;;8.60;99.90;;;;;;5058300;28;20463;-90
2022/03/17 09:45:52;;;;;;;1.57;1.47;;;8.70;99.90;;;;;;5074404;28;20456;-91
2022/03/17 09:48:22;;;;;;;4.97;1.00;;;8.70;99.90;;;;;;5071044;28;20462;-90
2022/03/17 09:50:55;;;;;;;2.10;1.70;;;8.80;99.90;;;;;;5067574;28;20925;-91
2022/03/17 09:53:23;;;;;;;1.37;1.27;;;8.90;99.90;;;;;;5072590;28;20528;-91
2022/03/17 09:55:50;;;;;;;0.50;0.33;;;8.90;99.90;;;;;;5061354;28;20475;-89
2022/03/17 09:58:18;;;;;;;1.13;1.13;;;9.00;99.90;;;;;;5067989;28;20479;-91
2022/03/17 10:00:53;;;;;;;6.53;1.57;;;9.10;99.90;;;;;;5069089;28;20491;-91
2022/03/17 10:03:25;;;;;;;0.43;0.40;;;9.10;99.90;;;;;;5072525;28;20890;-91
2022/03/17 10:05:53;;;;;;;2.50;2.30;;;9.20;99.90;;;;;;5051388;28;20472;-90
2022/03/17 10:08:21;;;;;;;1.60;1.37;;;9.30;99.90;;;;;;5072392;28;20467;-92
2022/03/17 10:10:51;;;;;;;1.63;1.03;;;9.60;99.90;;;;;;5073866;28;20980;-90
2022/03/17 10:13:19;;;;;;;1.60;1.60;;;9.60;99.90;;;;;;5086692;28;20491;-90
2022/03/17 10:15:47;;;;;;;3.33;1.77;;;9.60;99.90;;;;;;5078580;28;20446;-90
2022/03/17 10:18:23;;;;;;;2.27;2.17;;;9.60;99.90;;;;;;5083291;28;20479;-91
2022/03/17 10:21:05;;;;;;;0.43;0.30;;;9.50;99.90;;;;;;5056380;28;20486;-90
2022/03/17 10:23:32;;;;;;;0.40;0.30;;;9.80;99.90;;;;;;5086556;28;20455;-91
2022/03/17 10:25:59;;;;;;;1.50;0.40;;;9.90;99.90;;;;;;5088476;28;20535;-89
2022/03/17 10:28:26;;;;;;;0.53;0.53;;;9.80;99.90;;;;;;5075444;28;20464;-90
2022/03/17 10:31:03;;;;;;;2.30;0.80;;;9.90;99.90;;;;;;5059891;28;20496;-89
2022/03/17 10:33:32;;;;;;;0.40;0.20;;;10.30;99.90;;;;;;5053199;28;20582;-89
2022/03/17 10:36:15;;;;;;;0.40;0.30;;;10.60;99.90;;;;;;5070657;28;20541;-88
2022/03/17 10:38:44;;;;;;;3.13;1.90;;;10.30;98.40;;;;;;5073968;28;20889;-87
2022/03/17 10:41:12;;;;;;;0.40;0.30;;;10.70;98.80;;;;;;5049862;28;20503;-88
2022/03/17 10:43:41;;;;;;;1.17;1.17;;;10.80;98.40;;;;;;5060054;28;20503;-89
2022/03/17 10:46:11;;;;;;;0.73;0.73;;;10.90;98.20;;;;;;5071105;28;20440;-89
2022/03/17 10:48:55;;;;;;;1.50;0.83;;;11.00;98.20;;;;;;5051068;28;21025;-88
2022/03/17 10:51:35;;;;;;;0.70;0.60;;;11.30;98.40;;;;;;5068884;28;20458;-88
2022/03/17 10:54:05;;;;;;;0.33;0.23;;;11.10;97.10;;;;;;5069745;28;20452;-88
2022/03/17 10:56:32;;;;;;;3.53;1.40;;;11.30;97.80;;;;;;5056761;28;20461;-89
2022/03/17 10:59:01;;;;;;;1.90;1.00;;;11.50;96.90;;;;;;5060353;28;20837;-88
2022/03/17 11:01:38;;;;;;;4.33;4.13;;;11.80;96.90;;;;;;5067245;28;20479;-88
2022/03/17 11:04:07;;;;;;;2.33;1.30;;;12.10;96.00;;;;;;5089853;28;20499;-88
2022/03/17 11:06:38;;;;;;;0.90;0.90;;;12.10;97.00;;;;;;5061408;28;20453;-88
2022/03/17 11:09:08;;;;;;;0.50;0.30;;;11.90;96.30;;;;;;5102075;28;20459;-89
2022/03/17 11:11:36;;;;;;;1.17;1.07;;;11.80;95.50;;;;;;5083670;28;20453;-90
2022/03/17 11:14:03;;;;;;;0.50;0.50;;;12.10;96.40;;;;;;5063802;28;20589;-89
2022/03/17 11:16:38;;;;;;;0.50;0.50;;;12.10;97.10;;;;;;5071121;28;20447;-88
2022/03/17 11:19:12;;;;;;;1.83;1.33;;;12.10;96.90;;;;;;5069351;28;20925;-89
2022/03/17 11:21:41;;;;;;;4.03;1.80;;;12.20;96.70;;;;;;5077425;28;21026;-89
2022/03/17 11:24:08;;;;;;;1.07;1.07;;;12.00;97.10;;;;;;5088925;28;20840;-89
2022/03/17 11:26:37;;;;;;;2.93;1.70;;;12.10;97.10;;;;;;5068355;28;20467;-89
2022/03/17 11:29:06;;;;;;;3.30;0.80;;;12.20;97.50;;;;;;5069991;28;20455;-89
2022/03/17 11:32:00;;;;;;;1.20;0.80;;;12.00;96.90;;;;;;5068071;28;20540;-89
2022/03/17 11:34:49;;;;;;;0.80;0.70;;;11.60;97.00;;;;;;5066243;28;20452;-89
2022/03/17 11:37:26;;;;;;;2.00;1.27;;;11.60;96.90;;;;;;5073908;28;20451;-85
2022/03/17 11:39:56;;;;;;;1.03;0.87;;;11.50;96.90;;;;;;5071911;28;20460;-86
2022/03/17 11:42:40;;;;;;;0.40;0.40;;;11.70;97.20;;;;;;5067172;28;20541;-89
2022/03/17 11:45:40;;;;;;;0.97;0.97;;;11.80;97.10;;;;;;5069465;28;20448;-87
2022/03/17 11:48:14;;;;;;;1.03;1.03;;;12.00;96.40;;;;;;5071544;28;20448;-85
2022/03/17 11:50:50;;;;;;;1.27;1.07;;;12.10;95.90;;;;;;5066039;28;20459;-86
2022/03/17 11:53:38;;;;;;;3.70;1.30;;;12.20;95.00;;;;;;5069424;28;20456;-86
2022/03/17 11:56:05;;;;;;;2.63;2.53;;;12.20;94.80;;;;;;5054492;28;20500;-86
2022/03/17 11:58:42;;;;;;;0.83;0.30;;;12.00;94.80;;;;;;5064101;28;20936;-89
2022/03/17 12:01:12;;;;;;;1.23;1.23;;;12.10;94.50;;;;;;5050497;28;20491;-86
2022/03/17 12:03:43;;;;;;;0.30;0.30;;;12.40;94.30;;;;;;5062042;28;20859;-84
2022/03/17 12:06:22;;;;;;;1.80;0.50;;;12.30;94.60;;;;;;5067497;28;20533;-87
2022/03/17 12:08:59;;;;;;;1.27;0.77;;;12.20;94.20;;;;;;5073160;28;21438;-85
2022/03/17 12:11:27;;;;;;;1.23;1.23;;;12.20;92.70;;;;;;5069704;28;20482;-89
2022/03/17 12:14:24;;;;;;;1.30;1.30;;;12.20;92.30;;;;;;5079099;28;20891;-89
2022/03/17 12:16:53;;;;;;;0.50;0.50;;;12.20;92.70;;;;;;5066470;28;20456;-86
2022/03/17 12:19:31;;;;;;;1.03;0.90;;;12.20;92.70;;;;;;5066040;28;20495;-86
2022/03/17 12:22:15;;;;;;;0.70;0.60;;;12.40;91.60;;;;;;5068746;28;20482;-86
2022/03/17 12:24:45;;;;;;;1.23;0.40;;;12.60;93.20;;;;;;5062559;28;20484;-86
2022/03/17 12:27:19;;;;;;;0.43;0.40;;;13.00;92.60;;;;;;5069284;28;20447;-88
2022/03/17 12:29:48;;;;;;;0.60;0.30;;;13.40;91.90;;;;;;5065519;28;21028;-85
2022/03/17 12:32:17;;;;;;;1.30;0.33;;;13.80;89.50;;;;;;5088032;28;20941;-88
2022/03/17 12:34:46;;;;;;;0.77;0.50;;;13.70;88.30;;;;;;5076173;28;20922;-87
2022/03/17 12:37:15;;;;;;;0.40;0.30;;;13.70;87.30;;;;;;5066238;28;20459;-87
2022/03/17 12:39:42;;;;;;;1.33;0.87;;;13.70;88.70;;;;;;5057669;28;20926;-88
2022/03/17 12:42:15;;;;;;;1.10;0.97;;;13.70;87.10;;;;;;5071090;28;20483;-87
2022/03/17 12:44:50;;;;;;;1.47;1.37;;;13.60;84.00;;;;;;5070905;28;20443;-87
2022/03/17 12:47:19;;;;;;;0.30;0.20;;;13.90;84.20;;;;;;5060565;28;20468;-89
2022/03/17 12:49:46;;;;;;;0.40;0.40;;;13.60;84.50;;;;;;5067046;28;20448;-87
2022/03/17 12:52:17;;;;;;;1.00;1.00;;;13.40;84.90;;;;;;5067312;28;20464;-88
2022/03/17 12:54:45;;;;;;;0.70;0.53;;;13.20;84.50;;;;;;5065335;28;20988;-88
2022/03/17 12:57:11;;;;;;;0.57;0.43;;;13.10;85.70;;;;;;5069556;28;20452;-88
2022/03/17 12:59:38;;;;;;;1.77;1.67;;;12.90;85.60;;;;;;5080624;28;20454;-90
2022/03/17 13:02:07;;;;;;;1.87;1.43;;;12.80;89.00;;;;;;5063646;28;20586;-88
2022/03/17 13:04:37;;;;;;;0.40;0.30;;;12.40;90.10;;;;;;5049428;28;20460;-88
2022/03/17 13:07:08;;;;;;;0.57;0.53;;;12.20;90.50;;;;;;5057703;28;20825;-88
2022/03/17 13:09:36;;;;;;;0.40;0.40;;;12.10;90.70;;;;;;5076475;28;20524;-87
2022/03/17 13:14:54;;;;;;;0.70;0.60;;;11.90;89.20;;;;;;5038468;28;20471;-88
2022/03/17 13:17:39;;;;;;;0.40;0.30;;;12.00;89.20;;;;;;5067627;28;20576;-88
2022/03/17 13:20:12;;;;;;;4.00;0.77;;;12.10;88.60;;;;;;5063421;28;20495;-87
2022/03/17 13:22:40;;;;;;;0.40;0.40;;;12.00;87.40;;;;;;5070411;28;20574;-89